createdAt,value
2023-06-01T00:02:27.278Z,11.47
2023-06-01T00:04:54.678Z,11.47
2023-06-01T00:07:22.231Z,11.41
2023-06-01T00:09:49.173Z,11.27
2023-06-01T00:12:16.013Z,11.23
2023-06-01T00:14:43.228Z,11.27
2023-06-01T00:17:10.905Z,11.18
2023-06-01T00:19:39.823Z,11.23
2023-06-01T00:22:08.305Z,11.22
2023-06-01T00:24:35.569Z,11.33
2023-06-01T00:27:02.725Z,11.27
2023-06-01T00:29:30.624Z,11.27
2023-06-01T00:31:57.801Z,11.18
2023-06-01T00:34:24.725Z,11.23
2023-06-01T00:36:51.742Z,11.36
2023-06-01T00:39:18.667Z,11.19
2023-06-01T00:41:45.589Z,11.24
2023-06-01T00:44:12.586Z,11.29
2023-06-01T00:46:39.628Z,11.27
2023-06-01T00:49:07.702Z,11.12
2023-06-01T00:51:36.593Z,11.17
2023-06-01T00:54:03.623Z,11.11
2023-06-01T00:56:32.872Z,11.18
2023-06-01T00:59:00.979Z,11.22
2023-06-01T01:01:28.817Z,11.13
2023-06-01T01:03:59.019Z,10.83
2023-06-01T01:06:39.062Z,10.94
2023-06-01T01:09:16.276Z,11.01
2023-06-01T01:11:52.797Z,10.75
2023-06-01T01:14:43.666Z,10.73
2023-06-01T01:17:20.912Z,10.63
2023-06-01T01:19:59.020Z,10.58
2023-06-01T01:22:44.999Z,10.56
2023-06-01T01:25:51.569Z,10.50
2023-06-01T01:28:41.554Z,10.51
2023-06-01T01:31:12.245Z,10.56
2023-06-01T01:33:40.709Z,10.41
2023-06-01T01:36:09.964Z,10.32
2023-06-01T01:38:37.864Z,10.35
2023-06-01T01:41:05.545Z,10.35
2023-06-01T01:43:33.329Z,10.40
2023-06-01T01:46:15.056Z,10.47
2023-06-01T01:48:58.063Z,10.44
2023-06-01T01:51:37.293Z,10.47
2023-06-01T01:54:07.988Z,10.31
2023-06-01T01:56:39.049Z,10.52
2023-06-01T01:59:06.653Z,10.40
2023-06-01T02:01:35.829Z,10.37
2023-06-01T02:04:05.160Z,10.24
2023-06-01T02:06:32.057Z,10.14
2023-06-01T02:08:59.448Z,10.13
2023-06-01T02:11:26.424Z,10.16
2023-06-01T02:13:53.522Z,10.17
2023-06-01T02:16:20.314Z,10.07
2023-06-01T02:18:47.316Z,9.90
2023-06-01T02:21:14.956Z,9.93
2023-06-01T02:23:43.230Z,9.86
2023-06-01T02:26:11.431Z,9.82
2023-06-01T02:28:42.341Z,9.90
2023-06-01T02:31:09.309Z,9.97
2023-06-01T02:33:37.301Z,9.86
2023-06-01T02:36:04.246Z,9.87
2023-06-01T02:38:31.090Z,9.76
2023-06-01T02:40:59.231Z,9.79
2023-06-01T02:43:26.152Z,9.85
2023-06-01T02:45:53.089Z,9.82
2023-06-01T02:48:20.050Z,9.85
2023-06-01T02:50:47.053Z,9.75
2023-06-01T02:53:13.962Z,9.66
2023-06-01T02:55:41.458Z,9.68
2023-06-01T02:58:23.193Z,9.77
2023-06-01T03:01:03.656Z,9.91
2023-06-01T03:03:31.821Z,9.87
2023-06-01T03:05:58.748Z,9.67
2023-06-01T03:08:57.457Z,9.77
2023-06-01T03:11:47.635Z,9.87
2023-06-01T03:14:15.245Z,9.63
2023-06-01T03:16:42.774Z,9.70
2023-06-01T03:19:17.213Z,9.79
2023-06-01T03:21:48.053Z,9.85
2023-06-01T03:24:18.737Z,9.79
2023-06-01T03:26:45.894Z,9.74
2023-06-01T03:29:12.814Z,9.72
2023-06-01T03:31:39.888Z,9.78
2023-06-01T03:34:07.075Z,9.72
2023-06-01T03:36:34.068Z,9.82
2023-06-01T03:39:01.344Z,9.89
2023-06-01T03:41:29.124Z,9.85
2023-06-01T03:43:56.070Z,9.87
2023-06-01T03:46:23.536Z,9.79
2023-06-01T03:48:52.850Z,9.86
2023-06-01T03:51:19.879Z,9.66
2023-06-01T03:53:46.992Z,9.77
2023-06-01T03:56:13.888Z,9.76
2023-06-01T03:58:42.145Z,9.83
2023-06-01T04:01:13.158Z,9.81
2023-06-01T04:03:40.665Z,9.90
2023-06-01T04:06:13.229Z,10.05
2023-06-01T04:08:49.336Z,10.20
2023-06-01T04:11:17.595Z,10.05
2023-06-01T04:13:47.503Z,10.08
2023-06-01T04:16:15.275Z,10.05
2023-06-01T04:18:42.765Z,10.00
2023-06-01T04:21:16.431Z,9.92
2023-06-01T04:23:43.586Z,9.88
2023-06-01T04:26:13.290Z,10.07
2023-06-01T04:28:44.864Z,10.21
2023-06-01T04:31:20.586Z,10.08
2023-06-01T04:33:54.998Z,10.10
2023-06-01T04:36:28.414Z,10.11
2023-06-01T04:38:58.680Z,10.05
2023-06-01T04:41:31.594Z,9.96
2023-06-01T04:43:59.427Z,10.12
2023-06-01T04:46:27.624Z,10.12
2023-06-01T04:49:02.287Z,10.07
2023-06-01T04:51:32.278Z,10.06
2023-06-01T04:54:00.509Z,10.04
2023-06-01T04:56:30.568Z,9.93
2023-06-01T04:58:57.917Z,10.02
2023-06-01T05:01:27.622Z,10.04
2023-06-01T05:03:58.183Z,10.15
2023-06-01T05:06:26.377Z,10.08
2023-06-01T05:08:54.626Z,10.18
2023-06-01T05:11:22.624Z,9.96
2023-06-01T05:13:52.273Z,10.13
2023-06-01T05:16:19.652Z,10.13
2023-06-01T05:18:46.872Z,9.89
2023-06-01T05:21:14.188Z,10.02
2023-06-01T05:23:41.519Z,10.14
2023-06-01T05:26:08.462Z,10.11
2023-06-01T05:28:37.186Z,10.06
2023-06-01T05:31:06.750Z,10.08
2023-06-01T05:33:39.746Z,10.09
2023-06-01T05:36:07.466Z,10.02
2023-06-01T05:38:34.582Z,10.10
2023-06-01T05:41:01.752Z,10.28
2023-06-01T05:43:28.801Z,10.06
2023-06-01T05:45:55.805Z,9.95
2023-06-01T05:48:22.728Z,10.26
2023-06-01T05:50:54.845Z,9.96
2023-06-01T05:53:25.470Z,9.96
2023-06-01T05:55:54.075Z,10.02
2023-06-01T05:58:21.512Z,10.07
2023-06-01T06:00:48.423Z,10.11
2023-06-01T06:03:15.267Z,10.08
2023-06-01T06:05:42.249Z,10.22
2023-06-01T06:08:09.019Z,9.97
2023-06-01T06:10:36.167Z,10.09
2023-06-01T06:13:03.038Z,9.99
2023-06-01T06:15:30.800Z,10.19
2023-06-01T06:17:57.690Z,10.23
2023-06-01T06:20:24.662Z,10.17
2023-06-01T06:22:52.558Z,10.03
2023-06-01T06:25:20.632Z,10.16
2023-06-01T06:27:47.712Z,10.20
2023-06-01T06:30:14.837Z,10.02
2023-06-01T06:32:41.830Z,9.98
2023-06-01T06:35:14.129Z,10.09
2023-06-01T06:37:42.921Z,10.05
2023-06-01T06:40:10.357Z,10.28
2023-06-01T06:42:37.331Z,10.21
2023-06-01T06:45:06.129Z,10.22
2023-06-01T06:47:33.292Z,10.26
2023-06-01T06:50:00.177Z,10.21
2023-06-01T06:52:27.013Z,10.52
2023-06-01T06:54:53.745Z,10.57
2023-06-01T06:57:20.761Z,10.52
2023-06-01T06:59:47.757Z,10.76
2023-06-01T07:02:14.557Z,10.88
2023-06-01T07:04:41.367Z,10.93
2023-06-01T07:07:08.409Z,11.11
2023-06-01T07:09:35.273Z,11.06
2023-06-01T07:12:02.140Z,10.96
2023-06-01T07:14:28.957Z,10.52
2023-06-01T07:16:55.839Z,10.68
2023-06-01T07:19:23.074Z,10.79
2023-06-01T07:21:49.912Z,10.82
2023-06-01T07:24:20.422Z,10.93
2023-06-01T07:26:47.292Z,10.93
2023-06-01T07:29:16.101Z,11.01
2023-06-01T07:31:43.082Z,11.38
2023-06-01T07:34:10.266Z,11.09
2023-06-01T07:36:38.492Z,11.58
2023-06-01T07:39:10.199Z,11.32
2023-06-01T07:41:37.215Z,11.52
2023-06-01T07:44:04.040Z,11.73
2023-06-01T07:46:31.115Z,11.39
2023-06-01T07:48:58.586Z,11.29
2023-06-01T07:51:25.644Z,11.24
2023-06-01T07:53:52.468Z,11.19
2023-06-01T07:56:19.676Z,10.99
2023-06-01T07:58:46.484Z,11.16
2023-06-01T08:01:13.264Z,11.21
2023-06-01T08:03:44.489Z,11.09
2023-06-01T08:06:12.771Z,11.18
2023-06-01T08:08:40.233Z,11.28
2023-06-01T08:11:07.472Z,11.26
2023-06-01T08:13:37.306Z,11.48
2023-06-01T08:16:05.138Z,11.43
2023-06-01T08:18:32.236Z,11.38
2023-06-01T08:21:01.424Z,11.47
2023-06-01T08:23:28.357Z,11.79
2023-06-01T08:25:55.268Z,11.43
2023-06-01T08:28:22.100Z,11.23
2023-06-01T08:30:48.923Z,11.40
2023-06-01T08:33:16.699Z,11.71
2023-06-01T08:35:43.429Z,11.49
2023-06-01T08:38:10.829Z,11.38
2023-06-01T08:40:37.713Z,11.54
2023-06-01T08:43:22.204Z,11.68
2023-06-01T08:45:49.414Z,11.79
2023-06-01T08:48:22.423Z,11.78
2023-06-01T08:50:53.755Z,11.72
2023-06-01T08:53:22.617Z,11.89
2023-06-01T08:55:53.825Z,11.79
2023-06-01T08:58:20.720Z,11.46
2023-06-01T09:00:52.119Z,11.45
2023-06-01T09:03:19.026Z,11.20
2023-06-01T09:05:45.975Z,11.02
2023-06-01T09:08:13.525Z,11.07
2023-06-01T09:10:40.420Z,10.90
2023-06-01T09:13:07.336Z,11.14
2023-06-01T09:15:34.317Z,11.10
2023-06-01T09:18:11.981Z,11.46
2023-06-01T09:20:40.240Z,11.09
2023-06-01T09:23:07.398Z,11.12
2023-06-01T09:25:34.989Z,11.40
2023-06-01T09:28:03.434Z,11.10
2023-06-01T09:30:42.038Z,11.41
2023-06-01T09:33:14.538Z,11.51
2023-06-01T09:35:49.407Z,11.42
2023-06-01T09:38:27.013Z,11.67
2023-06-01T09:41:02.357Z,11.56
2023-06-01T09:43:29.834Z,11.55
2023-06-01T09:46:07.965Z,11.13
2023-06-01T09:48:35.063Z,11.07
2023-06-01T09:51:03.020Z,11.02
2023-06-01T09:53:42.016Z,11.27
2023-06-01T09:56:08.782Z,11.27
2023-06-01T09:58:40.687Z,11.45
2023-06-01T10:01:10.414Z,11.54
2023-06-01T10:03:45.345Z,11.52
2023-06-01T10:06:13.445Z,11.31
2023-06-01T10:08:40.786Z,11.43
2023-06-01T10:11:08.849Z,11.30
2023-06-01T10:13:37.072Z,11.37
2023-06-01T10:16:04.845Z,11.14
2023-06-01T10:18:33.064Z,11.30
2023-06-01T10:21:01.180Z,11.21
2023-06-01T10:23:31.674Z,11.29
2023-06-01T10:26:06.563Z,11.53
2023-06-01T10:28:36.878Z,11.57
2023-06-01T10:31:43.118Z,11.42
2023-06-01T10:34:14.335Z,11.71
2023-06-01T10:36:54.010Z,11.73
2023-06-01T10:39:30.503Z,11.90
2023-06-01T10:41:59.239Z,11.92
2023-06-01T10:44:41.176Z,12.09
2023-06-01T10:47:28.066Z,11.92
2023-06-01T10:49:56.539Z,11.67
2023-06-01T10:52:43.744Z,11.38
2023-06-01T10:55:16.670Z,11.39
2023-06-01T10:57:48.426Z,11.81
2023-06-01T11:00:23.681Z,11.78
2023-06-01T11:03:01.835Z,11.85
2023-06-01T11:05:48.292Z,11.82
2023-06-01T11:08:24.097Z,11.82
2023-06-01T11:11:00.935Z,11.75
2023-06-01T11:13:34.705Z,11.77
2023-06-01T11:16:24.043Z,11.62
2023-06-01T11:18:59.454Z,11.52
2023-06-01T11:21:29.691Z,11.62
2023-06-01T11:23:59.396Z,11.66
2023-06-01T11:26:31.711Z,11.78
2023-06-01T11:29:07.847Z,11.61
2023-06-01T11:31:46.820Z,11.86
2023-06-01T11:34:15.947Z,11.68
2023-06-01T11:36:50.321Z,11.83
2023-06-01T11:39:24.426Z,11.74
2023-06-01T11:41:54.152Z,11.82
2023-06-01T11:44:21.096Z,11.98
2023-06-01T11:46:57.108Z,11.98
2023-06-01T11:49:24.489Z,12.27
2023-06-01T11:51:54.580Z,12.03
2023-06-01T11:54:27.651Z,12.07
2023-06-01T11:56:58.355Z,12.08
2023-06-01T11:59:26.053Z,12.20
2023-06-01T12:01:54.100Z,12.40
2023-06-01T12:04:24.009Z,12.08
2023-06-01T12:06:52.612Z,12.20
2023-06-01T12:09:21.587Z,12.64
2023-06-01T12:11:49.118Z,12.98
2023-06-01T12:14:17.123Z,13.06
2023-06-01T12:17:04.285Z,13.21
2023-06-01T12:19:33.144Z,12.95
2023-06-01T12:22:00.295Z,12.46
2023-06-01T12:24:34.131Z,12.71
2023-06-01T12:27:13.752Z,12.67
2023-06-01T12:29:42.940Z,12.17
2023-06-01T12:32:11.362Z,11.97
2023-06-01T12:34:39.326Z,12.00
2023-06-01T12:37:19.895Z,11.91
2023-06-01T12:39:55.399Z,11.90
2023-06-01T12:42:43.646Z,11.87
2023-06-01T12:45:10.659Z,11.95
2023-06-01T12:47:41.657Z,12.04
2023-06-01T12:50:13.560Z,12.19
2023-06-01T12:52:43.443Z,11.97
2023-06-01T12:55:11.195Z,11.97
2023-06-01T12:57:41.951Z,11.83
2023-06-01T13:00:10.208Z,11.68
2023-06-01T13:02:37.519Z,11.90
2023-06-01T13:05:07.219Z,11.76
2023-06-01T13:07:34.726Z,11.84
2023-06-01T13:10:01.614Z,12.03
2023-06-01T13:12:32.590Z,12.04
2023-06-01T13:14:59.670Z,12.21
2023-06-01T13:17:27.862Z,12.45
2023-06-01T13:19:54.894Z,12.50
2023-06-01T13:22:22.282Z,12.80
2023-06-01T13:25:03.896Z,12.45
2023-06-01T13:27:32.998Z,12.40
2023-06-01T13:29:59.733Z,12.88
2023-06-01T13:32:27.056Z,12.82
2023-06-01T13:34:54.543Z,12.90
2023-06-01T13:37:22.201Z,12.73
2023-06-01T13:39:51.031Z,13.03
2023-06-01T13:42:18.876Z,12.95
2023-06-01T13:44:47.910Z,12.96
2023-06-01T13:47:16.274Z,13.03
2023-06-01T13:49:44.190Z,12.97
2023-06-01T13:52:11.123Z,12.93
2023-06-01T13:54:38.232Z,13.22
2023-06-01T13:57:06.931Z,13.00
2023-06-01T13:59:36.234Z,13.24
2023-06-01T14:02:04.196Z,13.42
2023-06-01T14:04:31.760Z,13.20
2023-06-01T14:06:58.519Z,13.35
2023-06-01T14:09:25.316Z,13.48
2023-06-01T14:11:52.064Z,13.22
2023-06-01T14:14:18.992Z,13.03
2023-06-01T14:16:46.784Z,13.15
2023-06-01T14:19:14.046Z,12.84
2023-06-01T14:21:40.979Z,12.73
2023-06-01T14:24:08.318Z,12.77
2023-06-01T14:26:35.212Z,12.66
2023-06-01T14:29:02.146Z,12.45
2023-06-01T14:31:28.981Z,12.63
2023-06-01T14:33:56.504Z,12.79
2023-06-01T14:36:28.466Z,13.01
2023-06-01T14:39:01.841Z,13.06
2023-06-01T14:41:28.657Z,12.90
2023-06-01T14:43:55.579Z,12.76
2023-06-01T14:46:22.675Z,12.35
2023-06-01T14:48:50.158Z,12.66
2023-06-01T14:51:16.924Z,12.62
2023-06-01T14:53:43.766Z,12.64
2023-06-01T14:56:10.633Z,12.92
2023-06-01T14:58:37.506Z,12.81
2023-06-01T15:01:04.697Z,12.63
2023-06-01T15:03:31.802Z,12.52
2023-06-01T15:05:58.780Z,12.33
2023-06-01T15:08:27.494Z,12.27
2023-06-01T15:10:54.713Z,12.05
2023-06-01T15:13:21.573Z,11.94
2023-06-01T15:15:48.369Z,12.04
2023-06-01T15:18:15.226Z,11.74
2023-06-01T15:20:42.050Z,11.69
2023-06-01T15:23:09.004Z,11.84
2023-06-01T15:25:35.952Z,11.68
2023-06-01T15:28:02.815Z,11.83
2023-06-01T15:30:32.526Z,11.56
2023-06-01T15:33:08.060Z,11.65
2023-06-01T15:35:36.787Z,11.67
2023-06-01T15:38:03.650Z,11.63
2023-06-01T15:40:30.495Z,11.60
2023-06-01T15:42:57.305Z,11.85
2023-06-01T15:45:24.128Z,11.83
2023-06-01T15:47:50.975Z,11.62
2023-06-01T15:50:17.827Z,11.74
2023-06-01T15:52:44.773Z,11.51
2023-06-01T15:55:11.767Z,11.43
2023-06-01T15:57:38.525Z,11.23
2023-06-01T16:00:05.962Z,11.14
2023-06-01T16:02:39.720Z,11.06
2023-06-01T16:05:07.311Z,11.00
2023-06-01T16:07:34.196Z,11.02
2023-06-01T16:10:01.184Z,10.97
2023-06-01T16:12:28.037Z,11.14
2023-06-01T16:14:54.846Z,11.14
2023-06-01T16:17:21.794Z,10.94
2023-06-01T16:19:48.560Z,11.08
2023-06-01T16:22:15.421Z,10.97
2023-06-01T16:24:42.323Z,10.82
2023-06-01T16:27:09.103Z,10.90
2023-06-01T16:29:35.976Z,10.88
2023-06-01T16:32:03.149Z,10.92
2023-06-01T16:34:30.097Z,10.89
2023-06-01T16:36:56.852Z,10.92
2023-06-01T16:39:23.644Z,11.04
2023-06-01T16:41:50.607Z,10.82
2023-06-01T16:44:17.466Z,10.74
2023-06-01T16:46:44.311Z,10.54
2023-06-01T16:49:11.285Z,10.45
2023-06-01T16:51:38.112Z,10.52
2023-06-01T16:54:05.588Z,10.35
2023-06-01T16:56:32.408Z,10.49
2023-06-01T16:58:59.253Z,10.67
2023-06-01T17:01:26.238Z,10.57
2023-06-01T17:03:53.187Z,10.50
2023-06-01T17:06:21.819Z,10.45
2023-06-01T17:08:48.765Z,10.42
2023-06-01T17:11:15.607Z,10.42
2023-06-01T17:13:42.454Z,10.53
2023-06-01T17:16:09.861Z,10.39
2023-06-01T17:18:37.136Z,10.38
2023-06-01T17:21:04.078Z,10.32
2023-06-01T17:23:30.931Z,10.32
2023-06-01T17:25:57.740Z,10.33
2023-06-01T17:28:24.661Z,10.37
2023-06-01T17:30:51.635Z,10.42
2023-06-01T17:33:19.024Z,10.32
2023-06-01T17:35:45.885Z,10.37
2023-06-01T17:38:12.828Z,10.47
2023-06-01T17:40:39.664Z,10.29
2023-06-01T17:43:06.660Z,10.20
2023-06-01T17:45:33.414Z,10.14
2023-06-01T17:48:00.425Z,10.28
2023-06-01T17:50:27.387Z,10.28
2023-06-01T17:52:54.374Z,10.23
2023-06-01T17:55:21.128Z,10.12
2023-06-01T17:57:47.862Z,10.14
2023-06-01T18:00:16.641Z,9.97
2023-06-01T18:02:43.954Z,10.01
2023-06-01T18:05:10.856Z,10.10
2023-06-01T18:07:37.611Z,10.09
2023-06-01T18:10:05.076Z,10.00
2023-06-01T18:12:35.352Z,9.97
2023-06-01T18:15:03.607Z,9.91
2023-06-01T18:17:30.495Z,9.94
2023-06-01T18:19:57.516Z,9.91
2023-06-01T18:22:24.377Z,9.96
2023-06-01T18:24:51.180Z,10.00
2023-06-01T18:27:17.966Z,10.06
2023-06-01T18:29:44.769Z,9.89
2023-06-01T18:32:11.640Z,9.85
2023-06-01T18:34:38.483Z,9.89
2023-06-01T18:37:06.409Z,9.93
2023-06-01T18:39:33.239Z,9.77
2023-06-01T18:42:00.204Z,9.71
2023-06-01T18:44:27.056Z,9.73
2023-06-01T18:46:53.989Z,9.79
2023-06-01T18:49:21.140Z,9.84
2023-06-01T18:51:47.885Z,9.64
2023-06-01T18:54:14.741Z,9.73
2023-06-01T18:56:41.725Z,9.63
2023-06-01T18:59:09.336Z,9.57
2023-06-01T19:01:36.201Z,9.56
2023-06-01T19:04:03.716Z,9.65
2023-06-01T19:06:34.017Z,9.53
2023-06-01T19:09:03.609Z,9.56
2023-06-01T19:11:30.852Z,9.58
2023-06-01T19:13:57.756Z,9.52
2023-06-01T19:16:30.304Z,9.54
2023-06-01T19:18:59.007Z,9.36
2023-06-01T19:21:30.693Z,9.41
2023-06-01T19:23:58.942Z,9.50
2023-06-01T19:26:28.909Z,9.41
2023-06-01T19:29:07.965Z,9.40
2023-06-01T19:31:37.974Z,9.42
2023-06-01T19:34:06.456Z,9.30
2023-06-01T19:36:45.871Z,9.32
2023-06-01T19:39:15.970Z,9.25
2023-06-01T19:41:43.345Z,9.17
2023-06-01T19:44:17.285Z,9.11
2023-06-01T19:46:44.204Z,9.09
2023-06-01T19:49:16.422Z,9.10
2023-06-01T19:51:45.107Z,9.16
2023-06-01T19:54:20.005Z,9.13
2023-06-01T19:56:48.430Z,9.05
2023-06-01T19:59:21.625Z,8.98
2023-06-01T20:01:49.372Z,8.93
2023-06-01T20:04:16.776Z,8.95
2023-06-01T20:06:48.663Z,8.89
2023-06-01T20:09:21.393Z,8.91
2023-06-01T20:11:56.841Z,8.87
2023-06-01T20:14:28.286Z,8.77
2023-06-01T20:16:55.542Z,8.84
2023-06-01T20:19:24.157Z,8.85
2023-06-01T20:21:53.603Z,8.78
2023-06-01T20:24:25.938Z,8.73
2023-06-01T20:26:57.810Z,8.70
2023-06-01T20:29:25.785Z,8.67
2023-06-01T20:31:57.975Z,8.63
2023-06-01T20:34:26.488Z,8.57
2023-06-01T20:36:53.616Z,8.52
2023-06-01T20:39:22.262Z,8.47
2023-06-01T20:41:51.772Z,8.53
2023-06-01T20:44:23.417Z,8.51
2023-06-01T20:46:51.653Z,8.48
2023-06-01T20:49:22.359Z,8.44
2023-06-01T20:51:49.203Z,8.44
2023-06-01T20:54:18.125Z,8.40
2023-06-01T20:56:46.136Z,8.38
2023-06-01T20:59:19.656Z,8.38
2023-06-01T21:01:55.380Z,8.27
2023-06-01T21:04:27.275Z,8.32
2023-06-01T21:06:54.892Z,8.28
2023-06-01T21:09:25.555Z,8.29
2023-06-01T21:11:54.474Z,8.25
2023-06-01T21:14:22.184Z,8.18
2023-06-01T21:16:49.599Z,8.21
2023-06-01T21:19:16.749Z,8.21
2023-06-01T21:21:43.712Z,8.19
2023-06-01T21:24:12.777Z,8.14
2023-06-01T21:26:40.632Z,8.14
2023-06-01T21:29:09.823Z,8.12
2023-06-01T21:31:37.126Z,8.06
2023-06-01T21:34:03.960Z,8.00
2023-06-01T21:36:30.958Z,8.01
2023-06-01T21:38:57.774Z,7.98
2023-06-01T21:41:24.677Z,7.92
2023-06-01T21:43:51.432Z,7.90
2023-06-01T21:46:18.328Z,7.84
2023-06-01T21:48:45.183Z,7.84
2023-06-01T21:51:12.123Z,7.89
2023-06-01T21:53:38.908Z,7.88
2023-06-01T21:56:06.260Z,7.73
2023-06-01T21:58:38.266Z,7.69
2023-06-01T22:01:06.724Z,7.71
2023-06-01T22:03:34.128Z,7.75
2023-06-01T22:06:01.600Z,7.70
2023-06-01T22:08:28.657Z,7.72
2023-06-01T22:10:55.548Z,7.65
2023-06-01T22:13:22.427Z,7.65
2023-06-01T22:15:49.297Z,7.65
2023-06-01T22:18:16.214Z,7.63
2023-06-01T22:20:43.077Z,7.55
2023-06-01T22:23:10.669Z,7.61
2023-06-01T22:25:38.792Z,7.51
2023-06-01T22:28:06.386Z,7.46
2023-06-01T22:30:33.688Z,7.49
2023-06-01T22:33:01.667Z,7.41
2023-06-01T22:35:28.842Z,7.41
2023-06-01T22:37:55.921Z,7.39
2023-06-01T22:40:22.799Z,7.35
2023-06-01T22:42:51.471Z,7.30
2023-06-01T22:45:19.837Z,7.29
2023-06-01T22:47:46.661Z,7.20
2023-06-01T22:50:14.164Z,7.12
2023-06-01T22:52:41.251Z,7.01
2023-06-01T22:55:08.307Z,6.97
2023-06-01T22:57:35.284Z,6.92
2023-06-01T23:00:02.556Z,6.86
2023-06-01T23:02:29.513Z,6.82
2023-06-01T23:04:56.378Z,6.82
2023-06-01T23:07:23.208Z,6.80
2023-06-01T23:09:50.263Z,6.82
2023-06-01T23:12:17.167Z,6.83
2023-06-01T23:14:43.975Z,6.81
2023-06-01T23:17:14.439Z,6.83
2023-06-01T23:19:42.699Z,6.77
2023-06-01T23:22:12.873Z,6.68
2023-06-01T23:24:40.997Z,6.63
2023-06-01T23:27:09.025Z,6.63
2023-06-01T23:29:36.633Z,6.58
2023-06-01T23:32:04.038Z,6.54
2023-06-01T23:34:33.698Z,6.58
2023-06-01T23:37:02.786Z,6.64
2023-06-01T23:39:30.637Z,6.64
2023-06-01T23:41:57.886Z,6.57
2023-06-01T23:44:24.865Z,6.59
2023-06-01T23:46:51.868Z,6.58
2023-06-01T23:49:19.072Z,6.61
2023-06-01T23:51:45.915Z,6.57
2023-06-01T23:54:12.813Z,6.55
2023-06-01T23:56:39.670Z,6.44
2023-06-01T23:59:06.674Z,6.42
